Currently 54°F in Lake Elsinore, California, USA
54°F
56°F / 54°F
calm
0.00"
Sunday, April 5, 2020 3:04 AM PDT

Lake Elsinore, California Weather Summary
Last 36 Hours

Temperature Winds Hourly Humidity Dewpoint
Time Report Norm Report Norm Max Gusts Precip. Rpt. Norm Rpt. Norm Pressure
1Sun 03:04 AM  53.8°F  50°F  calm  calm  none  0.00"  70%  84%  44°F  45°F  29.88"
3Sun 03:00 AM  53.8°F  50°F  calm  1 mph  none  0.00"  70%  84%  44°F  45°F  29.88"
Sun 02:00 AM  55.4°F  51°F  calm  1 mph  13 mph  0.00"  66%  82%  44°F  46°F  29.89"
2Sun 01:52 AM  55.7°F  51°F  2 mph E  1 mph  4 mph  ----  65%  82%  44°F  46°F  29.90"
Sun 01:00 AM  55.3°F  52°F  8 mph S  1 mph  15 mph  0.00"  68%  80%  44°F  46°F  29.91"
Sun 12:00 AM  55.6°F  54°F  5 mph S  1 mph  13 mph  0.00"  65%  78%  44°F  47°F  29.91"
Sat 11:00 PM  55.5°F  55°F  8 mph SW  1 mph  18 mph  0.00"  63%  75%  43°F  47°F  29.91"
Sat 10:00 PM  55.6°F  57°F  5 mph S  1 mph  14 mph  0.00"  66%  72%  44°F  48°F  29.91"
Sat 09:00 PM  56.5°F  59°F  8 mph SW  2 mph  17 mph  0.00"  64%  67%  44°F  48°F  29.90"
Sat 08:00 PM  57.8°F  62°F  6 mph S  3 mph  20 mph  0.00"  66%  61%  46°F  48°F  29.87"
Sat 07:00 PM  61.6°F  65°F  8 mph SW  5 mph  16 mph  0.00"  59%  55%  47°F  48°F  29.85"
Sat 06:00 PM  64.4°F  70°F  9 mph SW  6 mph  20 mph  0.00"  53%  48%  46°F  48°F  29.84"
Sat 05:00 PM  67.6°F  73°F  10 mph SW  7 mph  20 mph  0.00"  50%  43%  47°F  48°F  29.83"
Sat 04:00 PM  68.6°F  74°F  calm  6 mph  7 mph  0.00"  45%  40%  45°F  48°F  29.84"
Sat 03:00 PM  67.9°F  75°F  calm  6 mph  8 mph  0.00"  45%  40%  45°F  48°F  29.86"
Sat 02:00 PM  68.5°F  74°F  5 mph SE  4 mph  10 mph  0.00"  43%  41%  44°F  48°F  29.88"
Sat 01:00 PM  66.9°F  73°F  7 mph W  3 mph  7 mph  0.00"  45%  43%  44°F  48°F  29.90"
Sat 12:00 PM  63.6°F  70°F  1 mph NE  3 mph  7 mph  0.00"  52%  47%  45°F  48°F  29.93"
Sat 11:00 AM  59.6°F  67°F  5 mph E  3 mph  8 mph  0.00"  61%  53%  46°F  49°F  29.95"
Sat 10:00 AM  56.9°F  63°F  2 mph NE  2 mph  4 mph  0.00"  67%  62%  46°F  49°F  29.95"
Sat 09:00 AM  57.0°F  59°F  2 mph NE  1 mph  5 mph  0.00"  68%  74%  46°F  50°F  29.94"
Sat 08:00 AM  54.0°F  52°F  2 mph NE  1 mph  3 mph  0.00"  80%  87%  48°F  48°F  29.93"
Sat 07:00 AM  47.4°F  48°F  calm  calm  1 mph  0.00"  83%  88%  42°F  45°F  29.91"
Sat 06:00 AM  48.0°F  48°F  calm  calm  none  0.00"  82%  88%  43°F  45°F  29.89"
Sat 05:00 AM  48.8°F  49°F  calm  calm  none  0.00"  81%  87%  43°F  45°F  29.90"
Sat 04:00 AM  50.1°F  50°F  calm  1 mph  4 mph  0.00"  80%  85%  44°F  45°F  29.91"
Sat 03:00 AM  51.3°F  50°F  calm  1 mph  9 mph  0.00"  81%  84%  45°F  46°F  29.92"
Sat 02:00 AM  53.2°F  51°F  calm  1 mph  none  0.00"  80%  83%  47°F  46°F  29.91"
Sat 01:00 AM  54.0°F  53°F  calm  1 mph  3 mph  0.00"  80%  81%  48°F  46°F  29.92"
Sat 12:00 AM  54.7°F  54°F  calm  1 mph  6 mph  0.00"  78%  79%  48°F  47°F  29.93"
Fri 11:00 PM  56.4°F  55°F  2 mph E  1 mph  8 mph  0.00"  76%  76%  49°F  48°F  29.94"
Fri 10:00 PM  57.3°F  57°F  5 mph SE  1 mph  9 mph  0.00"  74%  73%  49°F  48°F  29.94"
Fri 09:00 PM  58.0°F  59°F  1 mph E  2 mph  5 mph  0.00"  66%  67%  46°F  48°F  29.91"
Fri 08:00 PM  59.5°F  62°F  3 mph W  3 mph  12 mph  0.00"  63%  62%  46°F  48°F  29.89"
Fri 07:00 PM  61.5°F  65°F  4 mph SW  4 mph  16 mph  0.00"  59%  56%  47°F  48°F  29.88"
Fri 06:00 PM  65.4°F  70°F  8 mph SW  6 mph  19 mph  0.00"  51%  48%  46°F  48°F  29.87"
Fri 05:00 PM  69.1°F  73°F  9 mph SW  7 mph  19 mph  0.00"  46%  43%  47°F  48°F  29.87"
Fri 04:00 PM  70.9°F  75°F  8 mph SW  6 mph  20 mph  0.00"  43%  40%  47°F  48°F  29.87"

  1. Current weather data. No green row appears if the current weather data is also the high or low for the current day.
  2. High temperature for the current day.
  3. Low temperature for the current day.

The Lake Elsinore, California weather pages are a service of WeatherCurrents. Lake Elsinore is located south of Corona and north of the Temecula Valley, in southwestern Riverside County, California.
Copyright ©2020  WeatherCurrents. All rights reserved. - Submit questions and comments - Privacy Policy

This page automatically refreshes every 10 minutes.